Time;durP1;ratioP1;P1;durP2;ratioP2;P2;SDS_P1;SDS_P2;PMS_P1;PMS_P2;Temp;Humidity;BMP_temperature;BMP_pressure;BME280_temperature;BME280_humidity;BME280_pressure;Samples;Min_cycle;Max_cycle;Signal;HPM_P1;HPM_P2
2022/04/11 00:01:32;;;;;;;18.07;11.43;;;;;;;-145.18;100.00;46656.50;4972097;28;20074;-77
2022/04/11 00:03:58;;;;;;;19.23;11.77;;;;;;;-145.18;100.00;46672.13;4972479;28;20117;-77
2022/04/11 00:06:23;;;;;;;15.03;10.73;;;;;;;-145.18;100.00;46683.84;4971664;28;20039;-77
2022/04/11 00:08:49;;;;;;;15.50;10.27;;;;;;;-145.18;100.00;46691.66;4972371;28;20134;-77
2022/04/11 00:11:14;;;;;;;14.70;9.77;;;;;;;-145.18;100.00;46701.41;4971573;28;20045;-77
2022/04/11 00:13:39;;;;;;;19.23;10.13;;;;;;;-145.18;100.00;46715.09;4972277;28;20046;-77
2022/04/11 00:16:07;;;;;;;14.83;9.47;;;;;;;-145.18;100.00;46744.38;4971628;28;20448;-77
2022/04/11 00:18:33;;;;;;;16.50;9.40;;;;;;;-145.18;100.00;46734.63;4972302;28;20078;-77
2022/04/11 00:20:59;;;;;;;13.67;9.07;;;;;;;-145.18;100.00;46715.09;4954499;28;20313;-77
2022/04/11 00:23:24;;;;;;;15.37;9.07;;;;;;;-145.18;100.00;46695.56;4954444;28;20285;-77
2022/04/11 00:25:50;;;;;;;15.77;9.30;;;;;;;-145.18;100.00;46705.31;4952532;29;20031;-77
2022/04/11 00:28:15;;;;;;;13.90;9.53;;;;;;;-145.18;100.00;46719.00;4952525;29;20465;-77
2022/04/11 00:30:40;;;;;;;11.90;8.73;;;;;;;-145.18;100.00;46720.94;4952789;29;20031;-77
2022/04/11 00:33:06;;;;;;;12.73;8.70;;;;;;;-145.18;100.00;46703.38;4952312;28;20460;-77
2022/04/11 00:35:31;;;;;;;15.17;8.87;;;;;;;-145.18;100.00;46711.19;4952431;29;20031;-77
2022/04/11 00:37:56;;;;;;;16.67;9.20;;;;;;;-145.18;100.00;46697.50;4952409;29;20465;-77
2022/04/11 00:40:22;;;;;;;13.40;8.73;;;;;;;-145.18;100.00;46719.00;4952265;28;20058;-77
2022/04/11 00:42:49;;;;;;;12.57;8.20;;;;;;;-145.18;100.00;46738.53;4952463;29;20042;-78
2022/04/11 00:45:15;;;;;;;15.60;8.70;;;;;;;-145.18;100.00;46750.25;4968297;28;20101;-77
2022/04/11 00:47:40;;;;;;;12.03;8.07;;;;;;;-145.18;100.00;46763.91;4971832;28;20285;-77
2022/04/11 00:50:09;;;;;;;13.90;8.10;;;;;;;-145.18;100.00;46773.69;4971090;28;20027;-77
2022/04/11 00:52:42;;;;;;;17.13;8.70;;;;;;;-145.18;100.00;46773.69;4971744;28;20105;-77
2022/04/11 00:55:08;;;;;;;15.23;8.23;;;;;;;-145.18;100.00;46828.38;4971231;28;20359;-78
2022/04/11 00:57:34;;;;;;;14.17;7.77;;;;;;;-145.18;100.00;46828.38;4971650;28;20280;-77
2022/04/11 01:00:02;;;;;;;12.93;7.30;;;;;;;-145.18;100.00;46832.28;4971108;28;20292;-77
2022/04/11 01:02:27;;;;;;;9.90;7.47;;;;;;;-145.18;100.00;46853.78;4971439;28;20085;-77
2022/04/11 01:04:53;;;;;;;12.90;7.73;;;;;;;-145.18;100.00;46879.19;4971374;28;20268;-77
2022/04/11 01:07:20;;;;;;;17.97;8.73;;;;;;;-145.18;100.00;46820.56;4971541;28;20034;-77
2022/04/11 01:09:45;;;;;;;16.70;9.33;;;;;;;-145.18;100.00;46844.00;4971349;28;20040;-78
2022/04/11 01:12:14;;;;;;;15.80;8.60;;;;;;;-145.18;100.00;46845.97;4970834;28;20375;-77
2022/04/11 01:14:40;;;;;;;16.03;8.87;;;;;;;-145.18;100.00;46842.06;4971106;28;20360;-77
2022/04/11 01:17:05;;;;;;;13.90;9.03;;;;;;;-145.18;100.00;46832.28;4971318;28;20351;-77
2022/04/11 01:19:31;;;;;;;17.17;8.83;;;;;;;-145.18;100.00;46826.44;4971526;28;20042;-77
2022/04/11 01:21:56;;;;;;;15.63;9.70;;;;;;;-145.18;100.00;46875.28;4970924;28;20034;-77
2022/04/11 01:24:22;;;;;;;16.30;8.83;;;;;;;-145.18;100.00;46873.31;4971193;28;20121;-77
2022/04/11 01:26:49;;;;;;;18.23;9.30;;;;;;;-145.18;100.00;46859.63;4971176;28;20042;-77
2022/04/11 01:29:16;;;;;;;21.13;9.10;;;;;;;-145.18;100.00;46845.97;4971175;28;20035;-77
2022/04/11 01:31:42;;;;;;;16.90;9.83;;;;;;;-145.18;100.00;46838.16;4970849;28;20279;-77
2022/04/11 01:34:07;;;;;;;18.33;9.60;;;;;;;-145.18;100.00;46863.53;4971206;28;20280;-77
2022/04/11 01:36:33;;;;;;;15.30;8.30;;;;;;;-145.18;100.00;46910.44;4970848;28;20377;-76
2022/04/11 01:38:58;;;;;;;17.17;8.60;;;;;;;-145.18;100.00;46924.09;4971260;28;20368;-76
2022/04/11 01:41:24;;;;;;;15.53;8.30;;;;;;;-145.18;100.00;46945.59;4970795;28;20599;-77
2022/04/11 01:43:49;;;;;;;14.43;8.03;;;;;;;-145.18;100.00;46963.19;4971161;28;20125;-77
2022/04/11 01:46:14;;;;;;;12.30;7.97;;;;;;;-145.18;100.00;46955.34;4970242;28;20050;-76
2022/04/11 01:48:40;;;;;;;11.17;8.10;;;;;;;-145.18;100.00;46916.28;4971252;28;20475;-76
2022/04/11 01:51:05;;;;;;;14.83;8.13;;;;;;;-145.18;100.00;46931.91;4970849;28;20054;-77
2022/04/11 01:53:31;;;;;;;10.93;8.43;;;;;;;-145.18;100.00;46890.91;4953786;28;20126;-77
2022/04/11 01:55:56;;;;;;;12.87;8.17;;;;;;;-145.18;100.00;46941.69;4970739;28;20039;-76
2022/04/11 01:58:22;;;;;;;13.30;8.50;;;;;;;-145.18;100.00;46849.88;4974330;28;20096;-76
2022/04/11 02:03:22;;;;;;;14.95;8.52;;;;;;;-145.18;100.00;46894.81;5089144;23;20065;-76
2022/04/11 02:05:48;;;;;;;14.93;8.73;;;;;;;-145.18;100.00;46840.09;4990907;28;20042;-76
2022/04/11 02:08:13;;;;;;;14.17;8.80;;;;;;;-145.18;100.00;46855.72;4972273;28;20062;-76
2022/04/11 02:10:39;;;;;;;13.57;8.27;;;;;;;-145.18;100.00;46892.84;4974891;28;20052;-77
2022/04/11 02:13:05;;;;;;;15.47;8.10;;;;;;;-145.18;100.00;46904.56;4974011;28;20102;-76
2022/04/11 02:15:31;;;;;;;13.87;8.63;;;;;;;-145.18;100.00;46916.28;4974846;28;20300;-76
2022/04/11 02:17:57;;;;;;;12.90;8.87;;;;;;;-145.18;100.00;46887.00;4974359;28;20780;-76
2022/04/11 02:20:22;;;;;;;17.10;9.70;;;;;;;-145.18;100.00;46908.47;4972994;28;20545;-76
2022/04/11 02:22:54;;;;;;;16.33;8.50;;;;;;;-145.18;100.00;46945.59;4974279;28;20091;-76
2022/04/11 02:25:25;;;;;;;15.67;8.37;;;;;;;-145.18;100.00;46935.81;4974414;28;20343;-76
2022/04/11 02:27:51;;;;;;;10.97;8.90;;;;;;;-145.18;100.00;46896.75;4974290;28;20276;-76
2022/04/11 02:30:18;;;;;;;12.20;8.20;;;;;;;-145.18;100.00;46916.28;4972716;28;20268;-76
2022/04/11 02:32:45;;;;;;;15.83;9.37;;;;;;;-145.18;100.00;46914.34;4974025;28;20315;-76
2022/04/11 02:35:11;;;;;;;16.00;9.97;;;;;;;-145.18;100.00;46910.44;4974138;28;20279;-76
2022/04/11 02:37:37;;;;;;;16.23;9.80;;;;;;;-145.18;100.00;46849.88;4972723;28;20271;-77
2022/04/11 02:40:04;;;;;;;17.30;9.60;;;;;;;-145.18;100.00;46869.41;4973937;28;20692;-77
2022/04/11 02:42:29;;;;;;;14.60;9.63;;;;;;;-145.18;100.00;46890.91;4973988;28;20045;-76
2022/04/11 02:44:55;;;;;;;15.13;9.17;;;;;;;-145.18;100.00;46885.03;4974142;28;20265;-77
2022/04/11 02:47:21;;;;;;;13.80;9.87;;;;;;;-145.18;100.00;46861.59;4973904;28;20059;-76
2022/04/11 02:49:47;;;;;;;15.03;9.60;;;;;;;-145.18;100.00;46865.50;4974130;28;20962;-77
2022/04/11 02:52:13;;;;;;;16.37;10.07;;;;;;;-145.18;100.00;46849.88;4973398;28;20495;-77
2022/04/11 02:54:39;;;;;;;18.73;10.93;;;;;;;-145.18;100.00;46863.53;4974324;28;20026;-76
2022/04/11 02:57:05;;;;;;;21.07;10.63;;;;;;;-145.18;100.00;46881.13;4971873;28;20765;-76
2022/04/11 02:59:32;;;;;;;18.13;11.20;;;;;;;-145.18;100.00;46892.84;4973815;28;20030;-76
2022/04/11 03:01:58;;;;;;;18.63;11.70;;;;;;;-145.18;100.00;46898.72;4973154;28;20678;-76
2022/04/11 03:04:24;;;;;;;20.30;11.43;;;;;;;-145.18;100.00;46910.44;4973914;28;20298;-76
2022/04/11 03:06:49;;;;;;;20.47;12.10;;;;;;;-145.18;100.00;46898.72;4973782;28;20671;-76
2022/04/11 03:09:14;;;;;;;18.07;11.57;;;;;;;-145.18;100.00;46890.91;4972328;28;20047;-77
2022/04/11 03:11:40;;;;;;;18.90;11.67;;;;;;;-145.18;100.00;46890.91;4973786;28;20038;-77
2022/04/11 03:14:05;;;;;;;16.03;11.27;;;;;;;-145.18;100.00;46869.41;4973062;28;20113;-76
2022/04/11 03:16:31;;;;;;;19.23;11.33;;;;;;;-145.18;100.00;46918.25;4973476;28;20035;-76
2022/04/11 03:18:56;;;;;;;18.50;10.80;;;;;;;-145.18;100.00;46943.63;4972929;28;20054;-76
2022/04/11 03:21:22;;;;;;;18.93;10.87;;;;;;;-145.18;100.00;46951.44;4973501;28;20027;-75
2022/04/11 03:23:48;;;;;;;16.07;11.37;;;;;;;-145.18;100.00;46965.13;4971907;28;20459;-75
2022/04/11 03:26:13;;;;;;;14.10;11.03;;;;;;;-145.18;100.00;46922.16;4972951;28;20034;-76
2022/04/11 03:28:39;;;;;;;19.93;11.53;;;;;;;-145.18;100.00;46912.38;4972984;28;20335;-76
2022/04/11 03:31:04;;;;;;;16.63;11.27;;;;;;;-145.18;100.00;46902.63;4973207;28;20043;-76
2022/04/11 03:33:29;;;;;;;17.90;11.43;;;;;;;-145.18;100.00;46898.72;4972988;28;20491;-76
2022/04/11 03:35:55;;;;;;;16.87;10.80;;;;;;;-145.18;100.00;46894.81;4973172;28;20114;-76
2022/04/11 03:38:20;;;;;;;18.07;11.43;;;;;;;-145.18;100.00;46873.31;4972525;28;20066;-76
2022/04/11 03:40:46;;;;;;;17.23;11.20;;;;;;;-145.18;100.00;46851.81;4973117;28;20097;-75
2022/04/11 03:43:11;;;;;;;19.80;11.90;;;;;;;-145.18;100.00;46859.63;4972316;28;20114;-75
2022/04/11 03:45:37;;;;;;;22.17;11.70;;;;;;;-145.18;100.00;46859.63;4973111;28;20035;-75
2022/04/11 03:48:02;;;;;;;20.57;11.17;;;;;;;-145.18;100.00;46877.22;4972335;28;20037;-76
2022/04/11 03:50:28;;;;;;;17.90;11.57;;;;;;;-145.18;100.00;46881.13;4972922;28;20415;-76
2022/04/11 03:52:54;;;;;;;17.57;11.20;;;;;;;-145.18;100.00;46875.28;4972722;28;20059;-75
2022/04/11 03:55:19;;;;;;;22.47;11.47;;;;;;;-145.18;100.00;46904.56;4972748;28;20039;-76
2022/04/11 03:57:44;;;;;;;24.00;13.13;;;;;;;-145.18;100.00;46873.31;4972372;28;20035;-76
2022/04/11 04:00:11;;;;;;;22.20;12.00;;;;;;;-145.18;100.00;46875.28;4972252;28;20619;-76
2022/04/11 04:02:37;;;;;;;23.70;12.03;;;;;;;-145.18;100.00;46857.69;4972163;28;20126;-76
2022/04/11 04:05:02;;;;;;;25.87;11.87;;;;;;;-145.18;100.00;46863.53;4975365;28;20272;-77
2022/04/11 04:07:28;;;;;;;19.03;11.83;;;;;;;-145.18;100.00;46840.09;4987918;28;20346;-76
2022/04/11 04:09:53;;;;;;;25.50;13.67;;;;;;;-145.18;100.00;46863.53;4991228;28;20034;-76
2022/04/11 04:12:20;;;;;;;29.27;13.20;;;;;;;-145.18;100.00;46871.38;4990494;28;20026;-76
2022/04/11 04:14:46;;;;;;;27.92;12.57;;;;;;;-145.18;100.00;46865.50;4991321;28;20026;-77
2022/04/11 04:17:11;;;;;;;24.97;12.30;;;;;;;-145.18;100.00;46808.84;4990959;28;20041;-76
2022/04/11 04:19:37;;;;;;;25.13;13.30;;;;;;;-145.18;100.00;46806.91;4991419;28;20041;-77
2022/04/11 04:22:02;;;;;;;23.77;12.10;;;;;;;-145.18;100.00;46797.13;4991498;28;20039;-77
2022/04/11 04:24:28;;;;;;;25.47;13.27;;;;;;;-145.18;100.00;46779.56;4991369;28;20042;-76
2022/04/11 04:26:53;;;;;;;24.93;13.53;;;;;;;-145.18;100.00;46761.97;4991427;28;20038;-75
2022/04/11 04:29:20;;;;;;;31.50;14.67;;;;;;;-145.18;100.00;46793.22;4991231;28;20046;-76
2022/04/11 04:31:47;;;;;;;29.80;14.75;;;;;;;-145.18;100.00;46775.66;4991531;28;20030;-76
2022/04/11 04:34:13;;;;;;;29.92;16.23;;;;;;;-145.18;100.00;46777.59;4973832;28;20029;-77
2022/04/11 04:36:38;;;;;;;32.40;16.40;;;;;;;-145.18;100.00;46775.66;4991738;28;20022;-76
2022/04/11 04:39:04;;;;;;;37.90;18.23;;;;;;;-145.18;100.00;46742.44;4991040;28;20030;-76
2022/04/11 04:41:29;;;;;;;39.43;18.97;;;;;;;-145.18;100.00;46748.28;4991726;28;20034;-76
2022/04/11 04:43:55;;;;;;;36.37;17.37;;;;;;;-145.18;100.00;46746.34;4991227;28;20046;-76
2022/04/11 04:46:20;;;;;;;37.67;18.80;;;;;;;-145.18;100.00;46746.34;4973833;28;20097;-76
2022/04/11 04:48:45;;;;;;;35.27;16.93;;;;;;;-145.18;100.00;46761.97;4973744;28;20129;-76
2022/04/11 04:51:11;;;;;;;35.20;16.73;;;;;;;-145.18;100.00;46761.97;4991126;28;20505;-76
2022/04/11 04:53:37;;;;;;;34.20;16.80;;;;;;;-145.18;100.00;46734.63;4990945;28;20038;-76
2022/04/11 04:56:02;;;;;;;27.85;15.95;;;;;;;-145.18;100.00;46746.34;4991009;28;20046;-77
2022/04/11 04:58:28;;;;;;;34.57;17.37;;;;;;;-145.18;100.00;46742.44;4990022;28;20622;-77
2022/04/11 05:00:53;;;;;;;30.83;16.47;;;;;;;-145.18;100.00;46711.19;4990696;28;20026;-77
2022/04/11 05:03:19;;;;;;;30.13;16.63;;;;;;;-145.18;100.00;46703.38;4988803;28;20050;-77
2022/04/11 05:05:44;;;;;;;29.37;16.13;;;;;;;-145.18;100.00;46711.19;4990206;28;20390;-77
2022/04/11 05:08:09;;;;;;;33.73;15.87;;;;;;;-145.18;100.00;46732.66;4990461;28;20035;-78
2022/04/11 05:10:35;;;;;;;30.40;16.93;;;;;;;-145.18;100.00;46730.72;4991127;28;20109;-77
2022/04/11 05:13:00;;;;;;;30.57;15.97;;;;;;;-145.18;100.00;46760.00;4990448;28;20113;-76
2022/04/11 05:15:26;;;;;;;31.13;16.80;;;;;;;-145.18;100.00;46761.97;4991228;28;20185;-76
2022/04/11 05:17:51;;;;;;;32.67;17.47;;;;;;;-145.18;100.00;46724.84;4990809;28;20034;-76
2022/04/11 05:20:16;;;;;;;27.37;14.70;;;;;;;-145.18;100.00;46748.28;4990590;28;20129;-76
2022/04/11 05:22:42;;;;;;;23.67;15.20;;;;;;;-145.18;100.00;46730.72;4990730;28;20130;-76
2022/04/11 05:25:08;;;;;;;27.40;15.40;;;;;;;-145.18;100.00;46738.53;4990690;28;20042;-77
2022/04/11 05:27:34;;;;;;;26.17;15.67;;;;;;;-145.18;100.00;46728.75;4990957;28;20035;-76
2022/04/11 05:29:59;;;;;;;28.73;16.50;;;;;;;-145.18;100.00;46734.63;4990802;28;20042;-76
2022/04/11 05:32:25;;;;;;;27.67;15.93;;;;;;;-145.18;100.00;46728.75;4992995;28;20038;-76
2022/04/11 05:34:50;;;;;;;27.17;16.77;;;;;;;-145.18;100.00;46742.44;4994718;28;20038;-77
2022/04/11 05:37:15;;;;;;;25.77;15.63;;;;;;;-145.18;100.00;46748.28;4993586;28;20525;-77
2022/04/11 05:39:42;;;;;;;24.10;15.00;;;;;;;-145.18;100.00;46730.72;4993204;28;20069;-77
2022/04/11 05:42:07;;;;;;;28.63;15.77;;;;;;;-145.18;100.00;46734.63;4994258;28;20030;-77
2022/04/11 05:44:33;;;;;;;23.37;15.30;;;;;;;-145.18;100.00;46742.44;4993905;28;20046;-77
2022/04/11 05:46:58;;;;;;;24.30;14.93;;;;;;;-145.18;100.00;46754.16;4994209;28;20172;-76
2022/04/11 05:49:24;;;;;;;22.50;15.60;;;;;;;-145.18;100.00;46781.50;4994401;28;20039;-76
2022/04/11 05:51:50;;;;;;;28.37;15.83;;;;;;;-145.18;100.00;46818.63;4994536;28;20161;-77
2022/04/11 05:54:15;;;;;;;26.70;15.60;;;;;;;-145.18;100.00;46806.91;4993696;28;20070;-76
2022/04/11 05:56:41;;;;;;;24.63;15.17;;;;;;;-145.18;100.00;46847.91;4994641;28;20339;-76
2022/04/11 05:59:08;;;;;;;22.70;15.63;;;;;;;-145.18;100.00;46845.97;4994006;28;20026;-76
2022/04/11 06:01:34;;;;;;;23.67;16.47;;;;;;;-145.18;100.00;46816.66;4994569;28;20141;-76
2022/04/11 06:04:00;;;;;;;22.93;16.40;;;;;;;-145.18;100.00;46836.19;4993479;28;20319;-77
2022/04/11 06:06:25;;;;;;;28.47;18.17;;;;;;;-145.18;100.00;46847.91;4994385;28;20286;-77
2022/04/11 06:08:51;;;;;;;23.50;17.63;;;;;;;-145.18;100.00;46824.47;4992406;28;20022;-77
2022/04/11 06:11:16;;;;;;;30.53;18.20;;;;;;;-145.18;100.00;46844.00;4976354;28;20034;-77
2022/04/11 06:13:43;;;;;;;23.27;18.03;;;;;;;-145.18;100.00;46847.91;4993757;28;20417;-77
2022/04/11 06:16:09;;;;;;;26.17;17.27;;;;;;;-145.18;100.00;46828.38;4993745;28;20410;-77
2022/04/11 06:18:34;;;;;;;27.30;19.33;;;;;;;-145.18;100.00;46857.69;4993502;28;20272;-77
2022/04/11 06:21:00;;;;;;;30.23;18.83;;;;;;;-145.18;100.00;46881.13;4976322;28;20301;-77
2022/04/11 06:23:25;;;;;;;31.20;18.93;;;;;;;-145.18;100.00;46873.31;4993682;28;20767;-77
2022/04/11 06:25:51;;;;;;;27.00;17.93;;;;;;;-145.18;100.00;46898.72;4993776;28;20034;-77
2022/04/11 06:28:16;;;;;;;29.13;17.50;;;;;;;-145.18;100.00;46922.16;4974691;28;20030;-77
2022/04/11 06:30:41;;;;;;;23.90;16.93;;;;;;;-145.18;100.00;46875.28;4990847;28;20073;-77
2022/04/11 06:33:07;;;;;;;25.63;16.80;;;;;;;-145.18;100.00;46883.09;4992301;28;20483;-77
2022/04/11 06:35:32;;;;;;;22.90;15.70;;;;;;;-145.18;100.00;46894.81;4993774;28;20030;-77
2022/04/11 06:37:57;;;;;;;23.40;15.27;;;;;;;-145.18;100.00;46888.94;4988276;28;20030;-77
2022/04/11 06:40:23;;;;;;;23.53;15.43;;;;;;;-145.18;100.00;46894.81;4993130;28;20403;-77
2022/04/11 06:42:48;;;;;;;19.23;14.50;;;;;;;-145.18;100.00;46875.28;4992044;28;20168;-77
2022/04/11 06:45:14;;;;;;;22.20;14.57;;;;;;;-145.18;100.00;46885.03;4993171;28;20109;-78
2022/04/11 06:47:40;;;;;;;21.13;15.43;;;;;;;-145.18;100.00;46859.63;4993404;28;20038;-77
2022/04/11 06:50:06;;;;;;;21.20;14.03;;;;;;;-145.18;100.00;46879.19;4993015;28;20807;-77
2022/04/11 06:52:31;;;;;;;19.83;14.43;;;;;;;-145.18;100.00;46890.91;4993471;28;20102;-77
2022/04/11 06:54:57;;;;;;;17.93;13.90;;;;;;;-145.18;100.00;47101.88;4993074;28;20475;-77
2022/04/11 06:57:24;;;;;;;21.60;13.70;;;;;;;-145.18;100.00;47047.19;4993206;28;20030;-77
2022/04/11 06:59:50;;;;;;;19.47;14.50;;;;;;;-145.18;100.00;47082.34;4992632;28;20042;-77
2022/04/11 07:02:15;;;;;;;23.53;13.93;;;;;;;-145.18;100.00;47139.00;4992771;28;20359;-77
2022/04/11 07:04:41;;;;;;;23.53;14.93;;;;;;;-145.18;100.00;47187.84;4992568;28;20050;-78
2022/04/11 07:07:06;;;;;;;21.23;13.43;;;;;;;-145.18;100.00;47293.31;4975104;28;20034;-78
2022/04/11 07:09:32;;;;;;;19.80;13.13;;;;;;;-145.18;100.00;47512.16;4992198;28;20483;-77
2022/04/11 07:11:58;;;;;;;18.83;12.60;;;;;;;-145.18;100.00;47535.59;4993153;28;20038;-78
2022/04/11 07:14:23;;;;;;;21.30;13.43;;;;;;;-145.18;100.00;47389.06;4992324;28;20042;-78
2022/04/11 07:16:52;;;;;;;21.83;14.03;;;;;;;-145.18;100.00;47070.63;4992980;28;20066;-78
2022/04/11 07:19:19;;;;;;;21.53;14.03;;;;;;;-145.18;100.00;47084.28;4975389;28;20034;-78
2022/04/11 07:21:46;;;;;;;17.70;12.27;;;;;;;-145.18;100.00;47307.00;4992742;28;20764;-78
2022/04/11 07:24:12;;;;;;;19.40;13.07;;;;;;;-145.18;100.00;47254.25;4992148;28;20268;-78
2022/04/11 07:26:37;;;;;;;24.87;13.63;;;;;;;-145.18;100.00;47492.59;4992971;28;20288;-78
2022/04/11 07:29:03;;;;;;;17.13;11.87;;;;;;;-145.18;100.00;47420.31;4992264;28;20089;-78
2022/04/11 07:31:29;;;;;;;25.27;13.00;;;;;;;-145.18;100.00;47496.50;4992610;28;20050;-78
2022/04/11 07:33:55;;;;;;;16.60;12.40;;;;;;;-145.18;100.00;47519.97;4992356;28;20113;-78
2022/04/11 07:36:21;;;;;;;18.87;11.63;;;;;;;-145.18;100.00;47547.31;4991972;28;20052;-78
2022/04/11 07:38:46;;;;;;;16.77;11.43;;;;;;;-145.18;100.00;47430.09;4992359;28;20034;-78
2022/04/11 07:41:40;;;;;;;14.30;10.87;;;;;;;-145.18;100.00;47516.06;4992275;28;20046;-78
2022/04/11 07:44:05;;;;;;;16.70;11.10;;;;;;;-145.18;100.00;47504.31;4986994;28;20118;-78
2022/04/11 07:46:31;;;;;;;21.30;10.47;;;;;;;-145.18;100.00;47416.41;4992219;28;20274;-78
2022/04/11 07:48:56;;;;;;;13.80;10.33;;;;;;;-145.18;100.00;47467.22;4991737;28;20046;-78
2022/04/11 07:51:21;;;;;;;18.27;10.57;;;;;;;-145.18;100.00;47449.63;4992120;28;20038;-78
2022/04/11 07:53:47;;;;;;;17.93;10.23;;;;;;;-145.18;100.00;47424.22;4974355;28;20034;-78
2022/04/11 07:56:12;;;;;;;16.27;10.23;;;;;;;-145.18;100.00;47435.94;4974155;28;20125;-78
2022/04/11 07:58:37;;;;;;;13.87;10.90;;;;;;;-145.18;100.00;47443.75;4991533;28;20035;-78
2022/04/11 08:01:03;;;;;;;12.53;10.40;;;;;;;-145.18;100.00;47418.38;4991969;28;20046;-78
2022/04/11 08:03:28;;;;;;;13.93;9.30;;;;;;;-145.18;100.00;47398.81;4991509;28;20050;-78
2022/04/11 08:05:54;;;;;;;17.97;9.20;;;;;;;-145.18;100.00;47400.78;4992114;28;20034;-78
2022/04/11 08:08:19;;;;;;;16.60;8.80;;;;;;;-145.18;100.00;47404.69;4991138;28;20026;-78
2022/04/11 08:10:45;;;;;;;15.37;8.63;;;;;;;-145.18;100.00;47383.19;4991331;28;20038;-78
2022/04/11 08:13:10;;;;;;;15.33;9.63;;;;;;;-145.18;100.00;47394.91;4991313;28;20372;-78
2022/04/11 08:15:36;;;;;;;14.37;8.30;;;;;;;-145.18;100.00;47383.19;4991819;28;20126;-78
2022/04/11 08:18:02;;;;;;;12.47;8.00;;;;;;;-145.18;100.00;47383.19;4991380;28;20038;-78
2022/04/11 08:20:28;;;;;;;12.37;8.70;;;;;;;-145.18;100.00;47377.34;4991375;28;20042;-78
2022/04/11 08:22:54;;;;;;;12.97;8.80;;;;;;;-145.18;100.00;47383.19;4991367;28;20280;-79
2022/04/11 08:25:19;;;;;;;13.20;8.00;;;;;;;-145.18;100.00;47363.66;4991294;28;20595;-79
2022/04/11 08:27:45;;;;;;;14.70;7.63;;;;;;;-145.18;100.00;47348.03;4991819;28;20038;-79
2022/04/11 08:30:12;;;;;;;11.43;7.20;;;;;;;-145.18;100.00;47371.47;4973323;28;20065;-79
2022/04/11 08:32:46;;;;;;;12.90;7.73;;;;;;;-145.18;100.00;47349.97;4991525;28;20053;-79
2022/04/11 08:35:12;;;;;;;13.23;7.33;;;;;;;-145.18;100.00;47338.25;4973241;28;20363;-79
2022/04/11 08:37:40;;;;;;;10.80;6.50;;;;;;;-145.18;100.00;47324.59;4991644;28;21108;-79
2022/04/11 08:40:07;;;;;;;13.27;7.00;;;;;;;-145.18;100.00;47336.31;4990889;28;20303;-79
2022/04/11 08:42:32;;;;;;;11.23;7.30;;;;;;;-145.18;100.00;47314.81;4991019;28;20352;-79
2022/04/11 08:44:59;;;;;;;9.47;6.33;;;;;;;-145.18;100.00;47330.44;4990801;28;20351;-79
2022/04/11 08:47:25;;;;;;;11.93;6.57;;;;;;;-145.18;100.00;47322.63;4991227;28;20376;-80
2022/04/11 08:49:53;;;;;;;9.90;5.97;;;;;;;-145.18;100.00;47324.59;4991009;28;20367;-79
2022/04/11 08:52:19;;;;;;;10.20;6.17;;;;;;;-145.18;100.00;47308.97;4991055;28;20033;-79
2022/04/11 08:54:45;;;;;;;10.33;5.23;;;;;;;-145.18;100.00;47295.28;4991049;28;20729;-79
2022/04/11 08:57:11;;;;;;;9.33;5.40;;;;;;;-145.18;100.00;47310.91;4990968;28;20264;-80
2022/04/11 08:59:36;;;;;;;9.43;5.47;;;;;;;-145.18;100.00;47308.97;4990847;28;20644;-79
2022/04/11 09:02:08;;;;;;;9.87;5.03;;;;;;;-145.18;100.00;47308.97;4991103;28;20069;-79
2022/04/11 09:04:47;;;;;;;7.87;4.43;;;;;;;-145.18;100.00;47303.09;4990609;28;20054;-79
2022/04/11 09:07:12;;;;;;;9.77;5.30;;;;;;;-145.18;100.00;47310.91;4990124;28;20272;-79
2022/04/11 09:09:39;;;;;;;10.17;5.17;;;;;;;-145.18;100.00;47279.66;4990788;28;20275;-80
2022/04/11 09:12:04;;;;;;;9.60;4.93;;;;;;;-145.18;100.00;47289.41;4990711;28;20034;-79
2022/04/11 09:14:29;;;;;;;11.33;4.77;;;;;;;-145.18;100.00;47297.22;4990775;28;20330;-79
2022/04/11 09:16:56;;;;;;;6.87;4.23;;;;;;;-145.18;100.00;47277.69;4991128;28;20053;-80
2022/04/11 09:19:23;;;;;;;10.40;4.80;;;;;;;-145.18;100.00;47295.28;4990417;28;20056;-80
2022/04/11 09:21:50;;;;;;;12.83;5.10;;;;;;;-145.18;100.00;47279.66;4991004;28;20074;-80
2022/04/11 09:24:19;;;;;;;10.33;4.23;;;;;;;-145.18;100.00;47265.97;4990407;28;20028;-80
2022/04/11 09:26:45;;;;;;;10.37;4.23;;;;;;;-145.18;100.00;47285.50;4990965;28;20030;-79
2022/04/11 09:29:12;;;;;;;9.47;4.10;;;;;;;-145.18;100.00;47285.50;4990548;28;20037;-80
2022/04/11 09:31:38;;;;;;;10.13;4.33;;;;;;;-145.18;100.00;47273.78;4971121;28;20790;-79
2022/04/11 09:34:16;;;;;;;6.90;4.10;;;;;;;-145.18;100.00;47275.75;4988881;28;20363;-79
2022/04/11 09:36:53;;;;;;;7.60;4.27;;;;;;;-145.18;100.00;47265.97;4990704;28;20086;-80
2022/04/11 09:39:23;;;;;;;7.03;4.60;;;;;;;-145.18;100.00;47271.84;4989829;28;20066;-79
2022/04/11 09:41:50;;;;;;;11.67;5.23;;;;;;;-145.18;100.00;47281.59;4990573;28;20030;-79
2022/04/11 09:44:21;;;;;;;9.80;4.57;;;;;;;-145.18;100.00;47262.06;4989611;28;20054;-79
2022/04/11 09:46:47;;;;;;;8.20;3.63;;;;;;;-145.18;100.00;47277.69;4991115;28;20107;-79
2022/04/11 09:49:12;;;;;;;5.13;3.90;;;;;;;-145.18;100.00;47250.34;4972230;28;20489;-79
2022/04/11 09:52:03;;;;;;;10.43;4.00;;;;;;;-145.18;100.00;47246.44;4990297;28;20064;-80
2022/04/11 09:54:30;;;;;;;13.10;5.30;;;;;;;-145.18;100.00;47252.31;4989610;28;20046;-79
2022/04/11 09:56:59;;;;;;;6.77;4.23;;;;;;;-145.18;100.00;47254.25;4990540;28;20031;-79
2022/04/11 09:59:25;;;;;;;9.50;3.90;;;;;;;-145.18;100.00;47256.22;4989539;28;20038;-79
2022/04/11 10:01:52;;;;;;;5.90;2.97;;;;;;;-145.18;100.00;47264.03;4990660;28;20057;-79
2022/04/11 10:04:18;;;;;;;7.23;4.07;;;;;;;-145.18;100.00;47242.53;4989387;28;20051;-79
2022/04/11 10:06:44;;;;;;;6.40;3.57;;;;;;;-145.18;100.00;47273.78;4990542;28;20037;-79
2022/04/11 10:09:11;;;;;;;8.70;4.10;;;;;;;-145.18;100.00;47260.13;4989745;28;20390;-79
2022/04/11 10:11:36;;;;;;;8.23;4.00;;;;;;;-145.18;100.00;47234.72;4990176;28;20030;-79
2022/04/11 10:14:03;;;;;;;7.80;3.93;;;;;;;-145.18;100.00;47230.81;4989625;28;20033;-79
2022/04/11 10:16:29;;;;;;;9.27;4.23;;;;;;;-145.18;100.00;47234.72;4990529;28;20388;-79
2022/04/11 10:19:01;;;;;;;6.20;4.20;;;;;;;-145.18;100.00;47252.31;4992424;28;20037;-79
2022/04/11 10:21:28;;;;;;;9.70;4.00;;;;;;;-145.18;100.00;47246.44;4993626;28;20044;-79
2022/04/11 10:24:15;;;;;;;6.47;4.10;;;;;;;-145.18;100.00;47244.50;4975787;28;20448;-79
2022/04/11 10:26:50;;;;;;;9.70;4.60;;;;;;;-145.18;100.00;47232.75;4993315;28;20032;-79
2022/04/11 10:29:37;;;;;;;6.32;4.13;;;;;;;-145.18;100.00;47226.91;4991400;28;20045;-79
2022/04/11 10:32:07;;;;;;;12.57;4.00;;;;;;;-145.18;100.00;47234.72;4990034;28;20109;-79
2022/04/11 10:34:55;;;;;;;7.43;3.20;;;;;;;-145.18;100.00;47215.19;4992566;28;20034;-79
2022/04/11 10:37:23;;;;;;;6.97;3.40;;;;;;;-145.18;100.00;47226.91;4992574;28;20345;-79
2022/04/11 10:39:49;;;;;;;5.47;3.20;;;;;;;-145.18;100.00;47219.09;4992906;28;20038;-80
2022/04/11 10:42:16;;;;;;;8.43;4.03;;;;;;;-145.18;100.00;47205.41;4992732;28;20042;-79
2022/04/11 10:44:50;;;;;;;8.80;4.20;;;;;;;-145.18;100.00;47221.03;4992918;28;20034;-79
2022/04/11 10:47:15;;;;;;;9.47;4.17;;;;;;;-145.18;100.00;47203.47;4992331;28;20053;-79
2022/04/11 10:52:31;;;;;;;8.10;4.60;;;;;;;-145.18;100.00;47191.75;4992177;28;20060;-79
2022/04/11 10:55:18;;;;;;;7.97;4.40;;;;;;;-145.18;100.00;47195.66;4990904;28;20113;-80
2022/04/11 10:57:55;;;;;;;7.80;3.97;;;;;;;-145.18;100.00;47203.47;4992574;28;20384;-79
2022/04/11 11:00:23;;;;;;;10.10;4.53;;;;;;;-145.18;100.00;47199.56;4991839;28;20503;-79
2022/04/11 11:02:57;;;;;;;10.23;4.17;;;;;;;-145.18;100.00;47203.47;4992458;28;20060;-78